Time;durP1;ratioP1;P1;durP2;ratioP2;P2;SDS_P1;SDS_P2;PMS_P1;PMS_P2;Temp;Humidity;BMP_temperature;BMP_pressure;BME280_temperature;BME280_humidity;BME280_pressure;Samples;Min_cycle;Max_cycle;Signal;HPM_P1;HPM_P2
2021/12/06 00:00:50;;;;;;;;;3.00;2.00;;;;;9.69;62.94;100535.31;2064891;28;47408;-59
2021/12/06 00:02:11;;;;;;;;;5.25;3.75;;;;;9.69;62.88;100538.84;2059959;28;48137;-59
2021/12/06 00:03:18;;;;;;;;;3.00;2.00;;;;;9.70;62.89;100542.34;2065764;28;47641;-59
2021/12/06 00:04:28;;;;;;;;;3.00;3.00;;;;;9.70;62.96;100543.22;2070677;28;45287;-57
2021/12/06 00:05:28;;;;;;;;;3.00;3.00;;;;;9.70;63.03;100547.66;2071754;28;47882;-57
2021/12/06 00:06:33;;;;;;;;;3.00;3.00;;;;;9.70;62.89;100545.88;2062845;28;47787;-57
2021/12/06 00:07:33;;;;;;;;;3.00;3.00;;;;;9.70;62.67;100545.88;2063416;28;47300;-57
2021/12/06 00:08:34;;;;;;;;;3.67;3.67;;;;;9.71;62.87;100547.63;2071373;28;47505;-57
2021/12/06 00:09:35;;;;;;;;;3.67;3.00;;;;;9.71;62.66;100546.75;2071384;28;47161;-58
2021/12/06 00:10:36;;;;;;;;;2.00;2.00;;;;;9.70;62.68;100548.53;2073045;28;46353;-59
2021/12/06 00:11:36;;;;;;;;;3.00;3.00;;;;;9.70;62.89;100553.81;2073188;28;48273;-59
2021/12/06 00:12:36;;;;;;;;;3.00;2.00;;;;;9.71;63.00;100549.41;2073299;28;48043;-56
2021/12/06 00:13:40;;;;;;;;;3.00;3.00;;;;;9.71;62.86;100557.34;2072271;28;46626;-59
2021/12/06 00:14:41;;;;;;;;;2.75;2.75;;;;;9.70;62.64;100556.47;2073123;28;47490;-57
2021/12/06 00:15:43;;;;;;;;;3.00;3.00;;;;;9.71;62.77;100552.06;2072386;28;47015;-54
2021/12/06 00:16:44;;;;;;;;;2.00;2.00;;;;;9.72;62.77;100562.63;2065895;28;47278;-59
2021/12/06 00:17:44;;;;;;;;;3.00;3.00;;;;;9.70;62.77;100556.47;2072981;28;48022;-58
2021/12/06 00:18:46;;;;;;;;;2.00;2.00;;;;;9.71;62.74;100557.34;2072010;28;47678;-58
2021/12/06 00:19:47;;;;;;;;;2.75;2.75;;;;;9.71;62.85;100562.66;2071628;28;46983;-58
2021/12/06 00:20:47;;;;;;;;;2.67;2.67;;;;;9.71;62.75;100565.31;2073006;28;47110;-55
2021/12/06 00:21:49;;;;;;;;;5.00;3.67;;;;;9.70;62.60;100564.44;2072991;28;47167;-58
2021/12/06 00:22:49;;;;;;;;;3.00;3.00;;;;;9.70;62.92;100563.56;2073187;28;48273;-58
2021/12/06 00:23:50;;;;;;;;;4.33;3.00;;;;;9.69;62.59;100560.03;2063450;28;47212;-55
2021/12/06 00:24:53;;;;;;;;;2.00;2.00;;;;;9.71;62.86;100560.00;2064216;28;47162;-59
2021/12/06 00:25:54;;;;;;;;;3.00;3.00;;;;;9.70;62.91;100561.78;2072990;28;45239;-58
2021/12/06 00:26:55;;;;;;;;;3.75;3.75;;;;;9.69;62.94;100565.34;2064130;28;48160;-57
2021/12/06 00:27:55;;;;;;;;;3.00;2.67;;;;;9.70;62.98;100558.25;2064105;28;47104;-55
2021/12/06 00:28:58;;;;;;;;;3.00;2.00;;;;;9.69;62.70;100559.16;2072279;28;48052;-57
2021/12/06 00:29:58;;;;;;;;;3.00;3.00;;;;;9.69;62.86;100560.03;2068711;28;47307;-56
2021/12/06 00:30:59;;;;;;;;;3.33;3.33;;;;;9.69;62.70;100560.03;2073293;28;47974;-59
2021/12/06 00:32:00;;;;;;;;;4.00;2.00;;;;;9.69;62.88;100552.09;2071798;28;45695;-58
2021/12/06 00:33:00;;;;;;;;;3.33;3.33;;;;;9.69;62.84;100559.16;2073073;28;47001;-58
2021/12/06 00:34:06;;;;;;;;;3.00;3.00;;;;;9.68;62.88;100547.69;2072016;28;47616;-57
2021/12/06 00:35:08;;;;;;;;;4.50;3.75;;;;;9.68;62.80;100563.59;2072215;28;46888;-57
2021/12/06 00:36:15;;;;;;;;;5.25;5.25;;;;;9.66;62.76;100557.47;2072791;28;48419;-58
2021/12/06 00:37:19;;;;;;;;;4.50;4.50;;;;;9.67;63.03;100564.50;2073074;28;48388;-57
2021/12/06 00:38:19;;;;;;;;;2.50;2.50;;;;;9.67;63.01;100569.78;2072945;28;47189;-59
2021/12/06 00:39:22;;;;;;;;;4.00;4.00;;;;;9.67;62.98;100566.28;2063809;28;45719;-56
2021/12/06 00:40:27;;;;;;;;;3.25;3.25;;;;;9.66;62.64;100554.81;2064304;28;47498;-59
2021/12/06 00:41:28;;;;;;;;;4.75;3.00;;;;;9.68;62.82;100571.53;2072069;28;48180;-58
2021/12/06 00:42:31;;;;;;;;;4.00;3.25;;;;;9.67;62.77;100567.16;2072862;28;45461;-55
2021/12/06 00:43:31;;;;;;;;;4.50;4.50;;;;;9.67;63.03;100572.44;2072383;28;48487;-56
2021/12/06 00:44:32;;;;;;;;;3.00;3.00;;;;;9.67;63.07;100575.09;2072732;28;47320;-58
2021/12/06 00:45:33;;;;;;;;;3.33;3.00;;;;;9.68;62.94;100574.19;2072574;28;48151;-58
2021/12/06 00:46:37;;;;;;;;;1.25;1.25;;;;;9.69;63.13;100580.38;2073190;28;47598;-58
2021/12/06 00:47:38;;;;;;;;;2.75;2.00;;;;;9.69;62.93;100575.94;2071712;28;47500;-57
2021/12/06 00:48:38;;;;;;;;;2.67;2.67;;;;;9.68;62.88;100579.50;2072551;28;47197;-57
2021/12/06 00:49:39;;;;;;;;;0.67;0.67;;;;;9.70;62.86;100587.41;2072399;28;48478;-59
2021/12/06 00:50:44;;;;;;;;;3.50;3.50;;;;;9.68;62.91;100584.78;2072916;28;47387;-56
2021/12/06 00:51:44;;;;;;;;;3.25;3.25;;;;;9.68;62.92;100584.78;2072389;28;47917;-56
2021/12/06 00:52:46;;;;;;;;;2.00;2.00;;;;;9.67;62.85;100583.06;2072436;28;47952;-56
2021/12/06 00:53:46;;;;;;;;;5.75;3.75;;;;;9.67;63.01;100590.13;2071965;28;47430;-57
2021/12/06 00:54:48;;;;;;;;;3.00;3.00;;;;;9.68;63.05;100583.91;2072782;28;48572;-58
2021/12/06 00:55:48;;;;;;;;;3.25;2.50;;;;;9.69;63.07;100596.25;2072573;28;47615;-57
2021/12/06 00:56:49;;;;;;;;;3.00;3.00;;;;;9.69;62.91;100596.25;2072941;28;47050;-56
2021/12/06 00:57:53;;;;;;;;;2.00;2.00;;;;;9.68;62.90;100595.38;2072532;28;48147;-55
2021/12/06 00:58:54;;;;;;;;;4.00;4.00;;;;;9.68;62.78;100602.47;2072321;28;47095;-55
2021/12/06 00:59:54;;;;;;;;;4.67;3.33;;;;;9.69;62.91;100596.25;2072111;28;48067;-57
2021/12/06 01:00:55;;;;;;;;;5.00;5.00;;;;;9.69;62.96;100598.91;2072782;28;47547;-55
2021/12/06 01:01:56;;;;;;;;;5.00;5.00;;;;;9.69;63.34;100593.63;2072759;28;47189;-57
2021/12/06 01:02:57;;;;;;;;;3.00;3.00;;;;;9.70;62.95;100598.00;2072881;28;47522;-56
2021/12/06 01:03:58;;;;;;;;;3.00;3.00;;;;;9.70;62.98;100600.66;2071964;28;47179;-57
2021/12/06 01:04:58;;;;;;;;;3.00;3.00;;;;;9.69;62.93;100601.56;2070745;28;46407;-57
2021/12/06 01:06:00;;;;;;;;;3.00;3.00;;;;;9.68;62.78;100595.38;2072700;28;47708;-56
2021/12/06 01:07:01;;;;;;;;;2.00;2.00;;;;;9.68;62.75;100599.81;2072956;28;48520;-57
2021/12/06 01:08:02;;;;;;;;;3.00;3.00;;;;;9.69;63.02;100605.09;2072463;28;48396;-56
2021/12/06 01:09:03;;;;;;;;;3.00;3.00;;;;;9.68;63.00;100603.34;2070874;28;47919;-56
2021/12/06 01:10:08;;;;;;;;;2.50;2.50;;;;;9.69;62.94;100609.50;2072503;28;47256;-56
2021/12/06 01:11:10;;;;;;;;;3.75;3.75;;;;;9.69;62.96;100604.22;2072840;28;48391;-56
2021/12/06 01:12:11;;;;;;;;;4.75;3.00;;;;;9.70;63.09;100605.97;2072771;28;47458;-55
2021/12/06 01:13:12;;;;;;;;;3.25;3.25;;;;;9.71;63.15;100613.00;2072753;28;48229;-54
2021/12/06 01:14:13;;;;;;;;;4.50;3.75;;;;;9.71;63.12;100610.34;2070664;28;47246;-56
2021/12/06 01:15:14;;;;;;;;;3.00;3.00;;;;;9.71;63.15;100610.34;2072570;28;47049;-57
2021/12/06 01:16:14;;;;;;;;;4.75;4.00;;;;;9.72;63.04;100618.25;2072635;28;47259;-56
2021/12/06 01:17:15;;;;;;;;;3.67;2.33;;;;;9.72;63.41;100612.09;2072751;28;47276;-55
2021/12/06 01:18:17;;;;;;;;;3.33;3.33;;;;;9.72;63.28;100612.97;2072832;28;47690;-56
2021/12/06 01:19:18;;;;;;;;;7.50;3.75;;;;;9.72;63.00;100610.31;2071192;28;46947;-57
2021/12/06 01:20:22;;;;;;;;;5.33;3.67;;;;;9.74;62.95;100612.94;2072306;28;47206;-56
2021/12/06 01:21:39;;;;;;;;;4.50;4.50;;;;;9.74;62.82;100623.53;2072615;28;48330;-57
2021/12/06 01:22:54;;;;;;;;;3.50;3.50;;;;;9.71;62.83;100618.28;2072779;28;47507;-57
2021/12/06 01:24:00;;;;;;;;;4.00;2.25;;;;;9.70;63.06;100616.56;2072001;28;47408;-56
2021/12/06 01:25:05;;;;;;;;;5.25;3.50;;;;;9.71;63.00;100618.28;2068616;28;47259;-57
2021/12/06 01:30:03;;;;;;;;;3.00;3.00;;;;;9.69;63.04;100618.34;2071912;28;48517;-56
2021/12/06 01:31:59;;;;;;;;;5.00;3.00;;;;;9.70;63.05;100617.44;2070201;28;47479;-57
2021/12/06 01:39:10;;;;;;;;;4.00;4.00;;;;;9.70;62.78;100621.84;2063179;28;48505;-56
2021/12/06 01:39:28;;;;;;;;;4.25;3.50;;;;;9.69;63.40;100638.66;2071928;28;49848;-56
2021/12/06 01:40:28;;;;;;;;;4.00;3.00;;;;;9.68;63.41;100631.63;2072464;28;47284;-56
2021/12/06 01:41:30;;;;;;;;;4.00;4.00;;;;;9.69;63.40;100631.59;2069612;28;47107;-56
2021/12/06 01:42:31;;;;;;;;;5.00;4.25;;;;;9.69;63.40;100638.66;2067714;28;48347;-57
2021/12/06 01:43:31;;;;;;;;;3.00;3.00;;;;;9.70;63.44;100641.28;2071330;28;47342;-58
2021/12/06 01:44:38;;;;;;;;;4.00;2.00;;;;;9.71;63.59;100639.50;2070905;28;45981;-56
2021/12/06 01:45:39;;;;;;;;;3.75;3.00;;;;;9.71;63.25;100643.03;2072050;28;48290;-55
2021/12/06 01:46:53;;;;;;;;;4.00;4.00;;;;;9.71;63.51;100643.03;2070388;28;47707;-55
2021/12/06 01:47:53;;;;;;;;;3.00;3.00;;;;;9.71;63.69;100645.66;2069656;28;47454;-56
2021/12/06 01:48:54;;;;;;;;;4.00;4.00;;;;;9.72;63.47;100642.13;2071903;28;47104;-56
2021/12/06 01:49:57;;;;;;;;;4.00;3.67;;;;;9.72;63.59;100647.41;2072096;28;47799;-56
2021/12/06 01:50:58;;;;;;;;;4.00;3.00;;;;;9.72;63.57;100638.59;2072550;28;47413;-56
2021/12/06 01:52:03;;;;;;;;;5.00;5.00;;;;;9.74;63.59;100657.97;2068152;28;48242;-57
2021/12/06 01:53:05;;;;;;;;;5.00;4.00;;;;;9.74;63.63;100656.19;2070519;28;48364;-56
2021/12/06 01:54:08;;;;;;;;;4.00;4.00;;;;;9.73;63.59;100651.81;2071724;28;47508;-56
2021/12/06 01:55:12;;;;;;;;;4.00;4.00;;;;;9.74;63.75;100656.19;2069338;28;47237;-58
2021/12/06 01:56:12;;;;;;;;;3.75;3.75;;;;;9.74;63.64;100655.34;2069306;28;48352;-57
2021/12/06 01:57:13;;;;;;;;;6.00;6.00;;;;;9.74;63.76;100658.84;2072825;28;47550;-58
2021/12/06 01:58:14;;;;;;;;;5.00;4.00;;;;;9.74;63.70;100664.16;2072415;28;47327;-57
2021/12/06 01:59:14;;;;;;;;;4.00;4.00;;;;;9.74;63.81;100666.81;2071718;28;48216;-56
2021/12/06 02:00:35;;;;;;;;;3.67;3.67;;;;;9.75;63.79;100665.03;2070250;28;47121;-56
2021/12/06 02:01:35;;;;;;;;;4.75;3.50;;;;;9.74;63.63;100666.81;2072196;28;47913;-58
2021/12/06 02:02:36;;;;;;;;;8.33;6.67;;;;;9.73;63.94;100665.06;2072489;28;47397;-56
2021/12/06 02:03:37;;;;;;;;;5.67;5.67;;;;;9.74;63.83;100668.56;2071900;28;47768;-57
2021/12/06 02:04:39;;;;;;;;;4.25;3.50;;;;;9.74;63.82;100677.41;2071951;28;48167;-57
2021/12/06 02:05:44;;;;;;;;;4.50;4.50;;;;;9.73;63.90;100674.78;2072285;28;48443;-58
2021/12/06 02:06:46;;;;;;;;;4.75;3.50;;;;;9.73;63.87;100674.78;2072377;28;46932;-57
2021/12/06 02:07:46;;;;;;;;;4.25;4.00;;;;;9.73;63.90;100677.44;2072260;28;47367;-54
2021/12/06 02:08:47;;;;;;;;;5.33;4.00;;;;;9.73;64.10;100673.00;2072062;28;47282;-56
2021/12/06 02:09:49;;;;;;;;;4.33;4.00;;;;;9.73;64.04;100680.09;2070654;28;47899;-57
2021/12/06 02:10:53;;;;;;;;;3.75;3.75;;;;;9.73;64.01;100677.44;2072337;28;48558;-57
2021/12/06 02:11:57;;;;;;;;;4.25;4.25;;;;;9.72;64.15;100679.22;2072412;28;47473;-56
2021/12/06 02:12:58;;;;;;;;;7.75;4.75;;;;;9.72;64.16;100673.03;2072496;28;48281;-54
2021/12/06 02:14:07;;;;;;;;;3.33;3.00;;;;;9.72;64.17;100686.28;2072932;28;47952;-56
2021/12/06 02:15:23;;;;;;;;;6.25;4.50;;;;;9.71;64.11;100681.91;2069551;28;47194;-57
2021/12/06 02:16:33;;;;;;;;;5.00;5.00;;;;;9.71;64.16;100688.06;2066045;28;48531;-57
2021/12/06 02:17:39;;;;;;;;;5.75;5.75;;;;;9.72;64.08;100695.13;2070936;28;48067;-56
2021/12/06 02:18:45;;;;;;;;;4.25;4.25;;;;;9.72;64.21;100689.81;2071983;28;47615;-57
2021/12/06 02:19:53;;;;;;;;;5.25;5.25;;;;;9.72;64.00;100694.25;2069869;28;48256;-57
2021/12/06 02:21:02;;;;;;;;;3.50;3.25;;;;;9.72;64.21;100695.13;2072342;28;47667;-57
2021/12/06 02:22:04;;;;;;;;;5.00;4.00;;;;;9.72;64.34;100697.75;2063411;28;45323;-56
2021/12/06 02:23:04;;;;;;;;;5.00;5.00;;;;;9.72;64.05;100692.47;2055809;28;47463;-55
2021/12/06 02:24:09;;;;;;;;;3.67;3.67;;;;;9.74;64.14;100697.72;2068992;28;47470;-57
2021/12/06 02:25:15;;;;;;;;;5.00;5.00;;;;;9.74;64.11;100695.94;2072436;28;48563;-56
2021/12/06 02:26:16;;;;;;;;;3.25;3.00;;;;;9.73;64.08;100694.22;2072267;28;47901;-56
2021/12/06 02:27:17;;;;;;;;;3.00;3.00;;;;;9.74;64.10;100697.72;2072394;28;46951;-56
2021/12/06 02:28:17;;;;;;;;;5.33;3.00;;;;;9.73;63.90;100694.22;2072123;28;48215;-55
2021/12/06 02:29:18;;;;;;;;;4.00;3.67;;;;;9.74;64.09;100695.09;2071374;28;48282;-58
2021/12/06 02:30:20;;;;;;;;;5.00;4.00;;;;;9.74;64.19;100695.09;2071859;28;48189;-57
2021/12/06 02:31:23;;;;;;;;;3.00;3.00;;;;;9.74;64.26;100693.31;2072002;28;46412;-57
2021/12/06 02:32:25;;;;;;;;;3.50;3.50;;;;;9.73;63.73;100695.97;2071816;28;46993;-57
2021/12/06 02:33:26;;;;;;;;;5.00;5.00;;;;;9.72;64.10;100695.13;2070938;28;48149;-58
2021/12/06 02:34:26;;;;;;;;;5.33;5.00;;;;;9.74;64.10;100695.09;2070524;28;48652;-57
2021/12/06 02:35:27;;;;;;;;;6.00;5.33;;;;;9.73;64.22;100693.34;2071647;28;47880;-56
2021/12/06 02:36:27;;;;;;;;;5.75;5.75;;;;;9.74;64.19;100692.44;2071654;28;48327;-56
2021/12/06 02:37:31;;;;;;;;;5.33;5.33;;;;;9.74;64.37;100693.31;2071635;28;48320;-58
2021/12/06 02:38:32;;;;;;;;;6.00;6.00;;;;;9.72;64.28;100689.81;2071757;28;47317;-57
2021/12/06 02:39:33;;;;;;;;;4.50;4.50;;;;;9.73;64.31;100691.56;2071398;28;47461;-57
2021/12/06 02:40:36;;;;;;;;;5.00;5.00;;;;;9.72;64.21;100695.13;2070251;28;47407;-57
2021/12/06 02:41:37;;;;;;;;;3.00;3.00;;;;;9.73;64.14;100691.56;2072211;28;47127;-56
2021/12/06 02:42:39;;;;;;;;;4.00;4.00;;;;;9.72;64.28;100699.53;2069568;28;47511;-57
2021/12/06 02:43:41;;;;;;;;;4.00;4.00;;;;;9.73;64.06;100703.94;2071772;28;48341;-56
2021/12/06 02:44:43;;;;;;;;;4.00;3.25;;;;;9.72;64.19;100697.75;2072306;28;48372;-56
2021/12/06 02:45:44;;;;;;;;;6.00;5.00;;;;;9.72;64.19;100707.50;2071798;28;46244;-58
2021/12/06 02:46:45;;;;;;;;;5.67;4.67;;;;;9.71;64.17;100701.31;2071167;28;47078;-56
2021/12/06 02:47:52;;;;;;;;;6.75;5.00;;;;;9.70;64.42;100706.66;2075948;28;47143;-57
2021/12/06 02:48:53;;;;;;;;;3.75;3.75;;;;;9.70;64.22;100698.69;2066821;28;48130;-57
2021/12/06 02:49:53;;;;;;;;;4.00;4.00;;;;;9.68;64.30;100704.03;2072012;28;47955;-56
2021/12/06 02:50:59;;;;;;;;;4.33;4.33;;;;;9.70;64.37;100706.66;2071459;28;47186;-55
2021/12/06 02:52:00;;;;;;;;;5.00;5.00;;;;;9.70;64.42;100706.66;2067291;28;47288;-56
2021/12/06 02:53:01;;;;;;;;;5.25;5.25;;;;;9.68;64.36;100701.38;2069766;28;48258;-56
2021/12/06 02:54:02;;;;;;;;;3.00;3.00;;;;;9.68;64.32;100696.09;2071556;28;48233;-57
2021/12/06 02:55:21;;;;;;;;;4.00;3.00;;;;;9.69;64.44;100699.59;2069136;28;46201;-57
2021/12/06 02:56:34;;;;;;;;;4.50;4.00;;;;;9.69;64.45;100699.59;2069563;28;48525;-57
2021/12/06 02:57:37;;;;;;;;;7.00;5.00;;;;;9.69;64.53;100697.81;2071842;28;47459;-56
2021/12/06 02:59:41;;;;;;;;;5.00;5.00;;;;;9.70;64.47;100698.69;2071701;28;46215;-55
2021/12/06 03:00:49;;;;;;;;;4.00;4.00;;;;;9.70;64.41;100693.41;2071641;28;47483;-56
2021/12/06 03:01:55;;;;;;;;;4.00;4.00;;;;;9.70;64.34;100701.34;2071983;28;48720;-54
2021/12/06 03:02:56;;;;;;;;;5.50;5.00;;;;;9.70;64.63;100696.06;2072110;28;47273;-56
2021/12/06 03:03:58;;;;;;;;;3.33;3.00;;;;;9.71;64.44;100700.44;2071155;28;46881;-57
2021/12/06 03:04:58;;;;;;;;;4.00;4.00;;;;;9.71;64.35;100705.75;2071925;28;46225;-56
2021/12/06 03:05:59;;;;;;;;;4.00;4.00;;;;;9.72;64.62;100711.00;2071745;28;47265;-56
2021/12/06 03:07:01;;;;;;;;;4.00;4.00;;;;;9.72;64.29;100708.38;2072142;28;47141;-56
2021/12/06 03:08:03;;;;;;;;;6.50;4.75;;;;;9.72;64.48;100708.38;2071127;28;47715;-56
2021/12/06 03:09:09;;;;;;;;;4.25;4.25;;;;;9.72;64.51;100711.00;2070953;28;48120;-56
2021/12/06 03:10:10;;;;;;;;;4.50;4.25;;;;;9.72;64.38;100708.38;2071411;28;48645;-58
2021/12/06 03:11:14;;;;;;;;;6.00;4.00;;;;;9.72;64.37;100710.13;2071656;28;47279;-56
2021/12/06 03:12:18;;;;;;;;;3.75;3.25;;;;;9.72;64.49;100713.66;2071865;28;48790;-58
2021/12/06 03:13:19;;;;;;;;;5.00;5.00;;;;;9.73;64.50;100719.84;2076880;28;47345;-57
2021/12/06 03:14:26;;;;;;;;;5.00;5.00;;;;;9.72;64.39;100723.38;2078170;28;47642;-56
2021/12/06 03:15:27;;;;;;;;;4.25;4.25;;;;;9.72;64.22;100721.63;2078622;28;47477;-55
2021/12/06 03:16:29;;;;;;;;;6.25;5.25;;;;;9.73;64.34;100725.13;2077431;28;47266;-57
2021/12/06 03:17:31;;;;;;;;;5.25;5.25;;;;;9.72;64.58;100718.09;2077551;28;47190;-57
2021/12/06 03:18:32;;;;;;;;;7.00;5.25;;;;;9.72;64.73;100724.25;2078409;28;46374;-58
2021/12/06 03:19:33;;;;;;;;;3.25;3.25;;;;;9.72;64.44;100728.69;2077458;28;47761;-57
2021/12/06 03:20:33;;;;;;;;;5.50;5.00;;;;;9.72;64.50;100732.22;2074796;28;47597;-56
2021/12/06 03:21:34;;;;;;;;;3.00;3.00;;;;;9.72;64.70;100724.25;2079104;28;47499;-57
2021/12/06 03:22:35;;;;;;;;;4.50;4.25;;;;;9.72;64.37;100731.34;2078773;28;47019;-55
2021/12/06 03:23:36;;;;;;;;;4.00;4.00;;;;;9.73;64.69;100728.66;2078211;28;47615;-56
2021/12/06 03:24:37;;;;;;;;;7.00;7.00;;;;;9.73;64.69;100733.09;2078773;28;47178;-58
2021/12/06 03:25:37;;;;;;;;;6.00;4.33;;;;;9.74;64.68;100740.13;2076438;28;47281;-56
2021/12/06 03:26:39;;;;;;;;;4.00;4.00;;;;;9.74;64.57;100735.69;2077822;28;47068;-57
2021/12/06 03:27:40;;;;;;;;;6.00;4.75;;;;;9.73;64.45;100730.44;2078508;28;47788;-57
2021/12/06 03:28:43;;;;;;;;;4.00;4.00;;;;;9.75;64.57;100739.22;2077606;28;47032;-59
2021/12/06 03:29:44;;;;;;;;;6.50;4.75;;;;;9.72;64.45;100742.81;2078718;28;47622;-59
2021/12/06 03:30:45;;;;;;;;;4.75;4.25;;;;;9.72;64.43;100740.16;2075614;28;45894;-57
2021/12/06 03:31:47;;;;;;;;;5.33;3.00;;;;;9.74;64.38;100740.13;2074849;28;47267;-58
2021/12/06 03:32:47;;;;;;;;;4.00;4.00;;;;;9.73;64.52;100743.69;2077559;28;47920;-56
2021/12/06 03:33:50;;;;;;;;;5.00;3.00;;;;;9.72;64.61;100742.81;2077978;28;47555;-58
2021/12/06 03:34:51;;;;;;;;;4.75;4.75;;;;;9.73;64.58;100746.34;2076297;28;47374;-56
2021/12/06 03:35:51;;;;;;;;;4.33;4.33;;;;;9.73;64.82;100741.91;2074632;28;47056;-55
2021/12/06 03:36:55;;;;;;;;;4.33;4.33;;;;;9.74;64.79;100740.13;2073566;28;47736;-57
2021/12/06 03:37:55;;;;;;;;;4.00;4.00;;;;;9.75;64.38;100747.19;2077211;28;47942;-55
2021/12/06 03:38:57;;;;;;;;;5.00;5.00;;;;;9.74;64.83;100748.09;2077308;28;47532;-58
2021/12/06 03:39:57;;;;;;;;;5.50;5.00;;;;;9.76;64.64;100742.75;2077989;28;47517;-57
2021/12/06 03:40:58;;;;;;;;;5.67;5.67;;;;;9.76;64.68;100742.75;2078173;28;47161;-57
2021/12/06 03:42:03;;;;;;;;;6.00;5.67;;;;;9.76;64.87;100738.31;2072399;28;47650;-58
2021/12/06 03:43:03;;;;;;;;;4.00;3.50;;;;;9.76;64.76;100740.09;2078087;28;47399;-58
2021/12/06 03:44:06;;;;;;;;;6.33;6.33;;;;;9.76;64.66;100738.31;2077625;28;47123;-56
2021/12/06 03:45:09;;;;;;;;;4.75;4.75;;;;;9.76;64.52;100730.38;2078881;28;47347;-58
2021/12/06 03:46:12;;;;;;;;;4.25;4.25;;;;;9.76;64.47;100735.66;2078913;28;47174;-55
2021/12/06 03:47:21;;;;;;;;;3.75;3.50;;;;;9.77;64.70;100733.91;2076410;28;45564;-58
2021/12/06 03:48:22;;;;;;;;;5.50;4.75;;;;;9.77;64.75;100731.25;2079316;28;47293;-56
2021/12/06 03:49:22;;;;;;;;;8.00;5.33;;;;;9.77;64.66;100728.59;2078481;28;46759;-55
2021/12/06 03:50:23;;;;;;;;;5.67;5.00;;;;;9.77;64.47;100733.91;2079819;28;47039;-57
2021/12/06 03:51:23;;;;;;;;;6.00;5.00;;;;;9.77;64.73;100733.91;2079067;28;46756;-57
2021/12/06 03:52:25;;;;;;;;;5.33;4.33;;;;;9.77;64.67;100729.47;2072616;28;47324;-57
2021/12/06 03:53:26;;;;;;;;;4.00;2.25;;;;;9.77;64.75;100739.19;2076052;28;47113;-57
2021/12/06 03:54:28;;;;;;;;;6.00;4.33;;;;;9.77;64.74;100740.06;2078699;28;47359;-57
2021/12/06 03:55:28;;;;;;;;;7.50;7.00;;;;;9.77;64.57;100744.50;2074031;28;47713;-57
2021/12/06 03:56:29;;;;;;;;;5.00;4.33;;;;;9.77;64.46;100749.78;2079795;28;47566;-57
2021/12/06 03:57:30;;;;;;;;;4.33;4.33;;;;;9.75;64.71;100747.19;2080059;28;46958;-57
2021/12/06 03:58:31;;;;;;;;;5.00;4.00;;;;;9.74;64.75;100748.94;2080591;28;47249;-58
2021/12/06 03:59:32;;;;;;;;;5.25;5.25;;;;;9.74;64.69;100743.66;2080085;28;46988;-57
2021/12/06 04:00:34;;;;;;;;;8.75;8.00;;;;;9.73;64.71;100746.34;2080065;28;47072;-57
2021/12/06 04:01:34;;;;;;;;;3.75;3.75;;;;;9.74;64.69;100743.66;2078776;28;46916;-57
2021/12/06 04:02:36;;;;;;;;;4.00;4.00;;;;;9.74;64.70;100737.47;2079427;28;47689;-58
2021/12/06 04:03:38;;;;;;;;;4.00;4.00;;;;;9.73;64.76;100739.25;2073858;28;47375;-58
2021/12/06 04:04:39;;;;;;;;;4.75;4.75;;;;;9.72;64.67;100742.81;2076165;28;47247;-58
2021/12/06 04:05:39;;;;;;;;;6.00;6.00;;;;;9.72;64.61;100749.88;2080102;28;47221;-58
2021/12/06 04:06:41;;;;;;;;;7.33;4.00;;;;;9.72;64.65;100755.19;2074519;28;48396;-59
2021/12/06 04:07:42;;;;;;;;;4.75;4.75;;;;;9.72;64.70;100763.13;2078506;28;46921;-57
2021/12/06 04:08:42;;;;;;;;;4.75;4.00;;;;;9.73;64.66;100771.06;2078924;28;47689;-57
2021/12/06 04:09:43;;;;;;;;;6.00;6.00;;;;;9.74;64.76;100772.81;2078593;28;46958;-57
2021/12/06 04:10:43;;;;;;;;;6.00;6.00;;;;;9.73;64.64;100775.50;2079359;28;47193;-58
2021/12/06 04:11:45;;;;;;;;;7.00;6.00;;;;;9.73;64.88;100776.34;2071586;28;47580;-58
2021/12/06 04:12:45;;;;;;;;;6.25;6.25;;;;;9.74;64.84;100779.88;2077895;28;47815;-59
2021/12/06 04:13:46;;;;;;;;;5.67;5.67;;;;;9.75;64.94;100784.28;2078558;28;47744;-59
2021/12/06 04:14:47;;;;;;;;;8.67;6.33;;;;;9.75;64.80;100778.97;2080411;28;45698;-57
2021/12/06 04:15:48;;;;;;;;;7.00;6.50;;;;;9.76;64.94;100787.81;2077999;28;46205;-56
2021/12/06 04:16:48;;;;;;;;;6.00;6.00;;;;;9.76;64.81;100788.69;2079708;28;47245;-57
2021/12/06 04:17:49;;;;;;;;;6.33;6.33;;;;;9.76;64.84;100783.38;2078757;28;45767;-60
2021/12/06 04:18:50;;;;;;;;;4.75;4.75;;;;;9.77;65.00;100800.16;2079756;28;47492;-58
2021/12/06 04:19:51;;;;;;;;;4.00;4.00;;;;;9.78;64.77;100791.28;2078038;28;46210;-57
2021/12/06 04:20:53;;;;;;;;;5.75;5.75;;;;;9.77;64.76;100800.16;2079821;28;47287;-58
2021/12/06 04:21:53;;;;;;;;;4.75;4.75;;;;;9.77;64.91;100798.38;2080199;28;47599;-57
2021/12/06 04:22:54;;;;;;;;;6.00;5.00;;;;;9.78;64.80;100799.25;2080053;28;47022;-56
2021/12/06 04:23:55;;;;;;;;;5.00;5.00;;;;;9.79;64.86;100804.56;2079357;28;47434;-57
2021/12/06 04:24:58;;;;;;;;;7.00;6.50;;;;;9.78;64.83;100799.25;2080326;28;47650;-57
2021/12/06 04:26:00;;;;;;;;;5.50;5.50;;;;;9.78;64.97;100799.25;2079895;28;46938;-56
2021/12/06 04:27:11;;;;;;;;;7.00;5.25;;;;;9.77;64.80;100795.72;2079412;28;48037;-56
2021/12/06 04:28:14;;;;;;;;;7.75;6.75;;;;;9.77;64.89;100797.50;2079482;28;47377;-57
2021/12/06 04:29:16;;;;;;;;;4.00;4.00;;;;;9.77;64.99;100798.38;2078521;28;47686;-57
2021/12/06 04:30:17;;;;;;;;;7.75;7.25;;;;;9.76;64.69;100799.28;2078999;28;46976;-58
2021/12/06 04:31:18;;;;;;;;;7.00;5.00;;;;;9.78;64.72;100800.13;2079791;28;47225;-58
2021/12/06 04:32:20;;;;;;;;;3.75;3.75;;;;;9.77;64.52;100792.19;2068704;28;47809;-58
2021/12/06 04:33:20;;;;;;;;;5.25;5.25;;;;;9.76;64.91;100801.94;2070457;28;47540;-58
2021/12/06 04:34:22;;;;;;;;;7.67;7.67;;;;;9.76;64.54;100799.28;2079540;28;47531;-58
2021/12/06 04:35:23;;;;;;;;;7.25;7.25;;;;;9.77;64.83;100802.81;2077746;28;47220;-58
2021/12/06 04:36:27;;;;;;;;;8.75;7.25;;;;;9.77;64.84;100794.84;2078646;28;47760;-58
2021/12/06 04:37:27;;;;;;;;;4.00;3.25;;;;;9.78;64.76;100796.59;2078701;28;47457;-56
2021/12/06 04:38:28;;;;;;;;;8.00;7.00;;;;;9.77;65.04;100801.03;2079593;28;46673;-58
2021/12/06 04:39:28;;;;;;;;;4.00;4.00;;;;;9.76;65.01;100799.28;2078307;28;45970;-57
2021/12/06 04:40:29;;;;;;;;;7.00;7.00;;;;;9.77;64.93;100806.31;2078908;28;47088;-57
2021/12/06 04:41:29;;;;;;;;;7.00;7.00;;;;;9.77;65.02;100798.38;2079358;28;47524;-61
2021/12/06 04:42:30;;;;;;;;;7.00;7.00;;;;;9.79;64.99;100811.63;2078913;28;47173;-58
2021/12/06 04:43:31;;;;;;;;;7.00;7.00;;;;;9.78;65.04;100804.53;2078433;28;47791;-58
2021/12/06 04:44:32;;;;;;;;;8.25;8.25;;;;;9.78;64.92;100810.72;2078635;28;47792;-58
2021/12/06 04:45:33;;;;;;;;;5.50;4.00;;;;;9.80;64.94;100808.06;2078563;28;48133;-56
2021/12/06 04:46:34;;;;;;;;;6.00;6.00;;;;;9.79;64.91;100806.31;2078857;28;46414;-58
2021/12/06 04:47:34;;;;;;;;;5.00;5.00;;;;;9.80;64.87;100819.53;2078934;28;48116;-58
2021/12/06 04:48:35;;;;;;;;;4.33;4.33;;;;;9.79;64.78;100816.94;2079113;28;47539;-57
2021/12/06 04:49:36;;;;;;;;;6.00;6.00;;;;;9.78;64.68;100823.97;2078513;28;45584;-57
2021/12/06 04:50:39;;;;;;;;;7.00;6.33;;;;;9.79;65.01;100816.94;2078367;28;47589;-58
2021/12/06 04:51:47;;;;;;;;;5.25;5.25;;;;;9.79;64.89;100831.06;2073155;28;47500;-56
2021/12/06 04:52:48;;;;;;;;;8.00;8.00;;;;;9.79;64.91;100825.75;2079252;28;47879;-58
2021/12/06 04:53:49;;;;;;;;;7.00;7.00;;;;;9.80;64.80;100834.56;2078279;28;46742;-59
2021/12/06 04:54:54;;;;;;;;;7.00;7.00;;;;;9.79;65.08;100831.06;2079628;28;47455;-57
2021/12/06 04:56:17;;;;;;;;;6.75;6.75;;;;;9.79;65.08;100835.47;2078908;28;47904;-57
2021/12/06 04:57:25;;;;;;;;;6.75;6.75;;;;;9.77;65.00;100827.53;2078453;28;47457;-58
2021/12/06 04:58:35;;;;;;;;;5.25;5.00;;;;;9.76;64.84;100833.72;2079352;28;47445;-57
2021/12/06 04:59:41;;;;;;;;;7.00;7.00;;;;;9.75;65.08;100834.63;2078826;28;47482;-56
2021/12/06 05:00:52;;;;;;;;;6.75;6.75;;;;;9.76;65.04;100828.44;2079741;28;47375;-57
2021/12/06 05:01:56;;;;;;;;;8.75;7.25;;;;;9.76;65.28;100839.03;2076726;28;47465;-58
2021/12/06 05:02:57;;;;;;;;;9.00;6.50;;;;;9.77;65.45;100835.47;2079866;28;47892;-58
2021/12/06 05:04:01;;;;;;;;;5.33;5.33;;;;;9.78;65.51;100839.00;2078808;28;47969;-58
2021/12/06 05:05:09;;;;;;;;;5.00;5.00;;;;;9.79;65.28;100841.66;2070229;28;47059;-57
2021/12/06 05:06:18;;;;;;;;;9.25;7.25;;;;;9.79;65.59;100844.31;2070955;28;47848;-56